createdAt,value
2022-11-29T00:00:48.242Z,5.80
2022-11-29T00:03:15.550Z,5.80
2022-11-29T00:05:42.155Z,5.90
2022-11-29T00:08:08.672Z,5.90
2022-11-29T00:10:38.009Z,5.70
2022-11-29T00:13:04.867Z,5.90
2022-11-29T00:15:35.716Z,5.90
2022-11-29T00:18:02.306Z,5.90
2022-11-29T00:20:28.862Z,5.90
2022-11-29T00:22:55.386Z,5.80
2022-11-29T00:25:21.916Z,5.90
2022-11-29T00:27:48.520Z,5.80
2022-11-29T00:30:15.065Z,5.80
2022-11-29T00:32:41.627Z,6.00
2022-11-29T00:35:09.776Z,5.70
2022-11-29T00:37:36.558Z,5.70
2022-11-29T00:40:04.414Z,5.80
2022-11-29T00:42:31.161Z,5.70
2022-11-29T00:44:57.766Z,5.80
2022-11-29T00:47:24.414Z,6.00
2022-11-29T00:49:51.013Z,5.80
2022-11-29T00:52:17.587Z,5.90
2022-11-29T00:54:44.386Z,6.00
2022-11-29T00:57:11.180Z,5.80
2022-11-29T00:59:37.704Z,5.90
2022-11-29T01:02:04.350Z,5.90
2022-11-29T01:04:30.972Z,5.90
2022-11-29T01:06:57.584Z,6.00
2022-11-29T01:09:24.150Z,5.90
2022-11-29T01:11:50.904Z,5.90
2022-11-29T01:14:17.507Z,5.80
2022-11-29T01:16:44.074Z,5.80
2022-11-29T01:19:10.796Z,5.90
2022-11-29T01:21:37.549Z,5.70
2022-11-29T01:24:04.397Z,5.80
2022-11-29T01:26:31.656Z,5.70
2022-11-29T01:28:59.044Z,5.80
2022-11-29T01:31:28.514Z,5.90
2022-11-29T01:33:56.346Z,5.90
2022-11-29T01:36:23.847Z,6.00
2022-11-29T01:38:50.536Z,6.00
2022-11-29T01:41:20.235Z,5.90
2022-11-29T01:43:52.835Z,5.80
2022-11-29T01:46:19.478Z,5.70
2022-11-29T01:48:46.119Z,5.60
2022-11-29T01:51:12.658Z,5.70
2022-11-29T01:53:39.499Z,5.70
2022-11-29T01:56:06.581Z,5.80
2022-11-29T01:58:33.446Z,5.90
2022-11-29T02:01:01.212Z,5.80
2022-11-29T02:03:27.855Z,5.70
2022-11-29T02:05:55.057Z,5.70
2022-11-29T02:08:25.461Z,5.70
2022-11-29T02:11:15.245Z,5.80
2022-11-29T02:14:20.359Z,5.90
2022-11-29T02:16:56.571Z,5.90
2022-11-29T02:19:48.483Z,5.80
2022-11-29T02:22:31.633Z,5.90
2022-11-29T02:25:12.887Z,5.90
2022-11-29T02:27:57.453Z,5.90
2022-11-29T02:30:39.279Z,5.80
2022-11-29T02:33:47.296Z,5.60
2022-11-29T02:36:16.824Z,5.70
2022-11-29T02:38:43.384Z,5.80
2022-11-29T02:41:27.946Z,5.80
2022-11-29T02:44:31.244Z,5.80
2022-11-29T02:47:28.772Z,5.80
2022-11-29T02:50:13.511Z,5.90
2022-11-29T02:52:39.999Z,5.60
2022-11-29T02:55:15.140Z,5.60
2022-11-29T02:57:55.096Z,5.80
2022-11-29T03:00:23.046Z,5.60
2022-11-29T03:03:14.309Z,5.70
2022-11-29T03:05:47.162Z,5.60
2022-11-29T03:08:32.634Z,5.60
2022-11-29T03:11:24.941Z,5.70
2022-11-29T03:14:15.419Z,5.90
2022-11-29T03:17:10.654Z,5.80
2022-11-29T03:20:19.074Z,5.80
2022-11-29T03:22:48.515Z,5.60
2022-11-29T03:25:24.296Z,5.70
2022-11-29T03:27:55.978Z,5.70
2022-11-29T03:30:22.782Z,5.80
2022-11-29T03:32:56.974Z,5.80
2022-11-29T03:35:58.533Z,5.90
2022-11-29T03:38:30.323Z,5.90
2022-11-29T03:41:18.342Z,5.90
2022-11-29T03:44:00.094Z,5.60
2022-11-29T03:46:33.496Z,5.60
2022-11-29T03:49:13.011Z,5.60
2022-11-29T03:51:57.232Z,5.60
2022-11-29T03:54:38.326Z,5.60
2022-11-29T03:57:06.097Z,5.70
2022-11-29T03:59:52.014Z,5.70
2022-11-29T04:02:34.217Z,5.90
2022-11-29T04:05:16.050Z,6.00
2022-11-29T04:08:10.674Z,5.90
2022-11-29T04:11:17.143Z,5.80
2022-11-29T04:14:28.214Z,5.80
2022-11-29T04:17:50.213Z,5.50
2022-11-29T04:20:44.210Z,5.60
2022-11-29T04:23:26.383Z,5.60
2022-11-29T04:25:55.952Z,5.50
2022-11-29T04:28:41.448Z,5.70
2022-11-29T04:31:33.251Z,5.70
2022-11-29T04:34:03.296Z,5.60
2022-11-29T04:36:54.492Z,5.60
2022-11-29T04:39:43.750Z,5.60
2022-11-29T04:42:10.599Z,5.60
2022-11-29T04:44:57.901Z,5.70
2022-11-29T04:47:42.715Z,5.60
2022-11-29T04:50:32.694Z,5.60
2022-11-29T04:53:32.960Z,5.60
2022-11-29T04:56:20.567Z,5.80
2022-11-29T04:59:08.847Z,5.90
2022-11-29T05:01:54.644Z,5.70
2022-11-29T05:04:23.243Z,5.80
2022-11-29T05:06:49.721Z,5.70
2022-11-29T05:09:32.123Z,5.60
2022-11-29T05:12:21.178Z,5.70
2022-11-29T05:15:09.314Z,5.80
2022-11-29T05:17:44.873Z,5.70
2022-11-29T05:20:26.571Z,5.80
2022-11-29T05:23:27.030Z,5.90
2022-11-29T05:26:09.891Z,5.90
2022-11-29T05:28:45.614Z,5.90
2022-11-29T05:31:32.019Z,5.90
2022-11-29T05:34:16.548Z,5.80
2022-11-29T05:37:12.677Z,5.70
2022-11-29T05:40:22.402Z,5.60
2022-11-29T05:43:00.901Z,5.70
2022-11-29T05:45:49.682Z,5.70
2022-11-29T05:48:37.537Z,5.70
2022-11-29T05:51:07.157Z,5.70
2022-11-29T05:53:44.628Z,5.70
2022-11-29T05:56:16.739Z,5.80
2022-11-29T05:58:48.572Z,5.70
2022-11-29T06:01:24.560Z,5.70
2022-11-29T06:04:10.341Z,5.70
2022-11-29T06:06:45.056Z,5.80
2022-11-29T06:09:48.714Z,5.90
2022-11-29T06:12:23.963Z,5.90
2022-11-29T06:15:13.638Z,5.80
2022-11-29T06:18:01.603Z,5.90
2022-11-29T06:20:46.519Z,5.70
2022-11-29T06:23:31.523Z,5.60
2022-11-29T06:26:13.069Z,5.80
2022-11-29T06:29:02.980Z,5.80
2022-11-29T06:31:34.745Z,5.70
2022-11-29T06:34:12.640Z,5.80
2022-11-29T06:37:08.743Z,5.90
2022-11-29T06:39:35.786Z,5.70
2022-11-29T06:42:02.480Z,5.70
2022-11-29T06:44:29.284Z,5.70
2022-11-29T06:47:07.150Z,5.60
2022-11-29T06:49:42.951Z,5.60
2022-11-29T06:52:36.066Z,5.70
2022-11-29T06:55:20.138Z,5.80
2022-11-29T06:58:11.283Z,5.80
2022-11-29T07:00:57.456Z,5.70
2022-11-29T07:03:32.987Z,5.60
2022-11-29T07:06:08.630Z,5.70
2022-11-29T07:08:35.739Z,5.80
2022-11-29T07:11:02.610Z,5.80
2022-11-29T07:13:29.431Z,5.70
2022-11-29T07:16:21.951Z,5.90
2022-11-29T07:18:57.766Z,5.80
2022-11-29T07:21:27.275Z,5.70
2022-11-29T07:23:59.696Z,5.70
2022-11-29T07:27:05.884Z,5.80
2022-11-29T07:29:49.628Z,5.90
2022-11-29T07:32:47.287Z,5.80
2022-11-29T07:35:28.603Z,5.80
2022-11-29T07:38:46.461Z,5.90
2022-11-29T07:41:34.587Z,5.80
2022-11-29T07:44:06.632Z,5.80
2022-11-29T07:46:33.240Z,5.80
2022-11-29T07:48:59.767Z,6.00
2022-11-29T07:51:26.263Z,6.00
2022-11-29T07:53:52.780Z,6.00
2022-11-29T07:56:19.861Z,6.00
2022-11-29T07:58:46.697Z,6.10
2022-11-29T08:01:13.351Z,6.10
2022-11-29T08:03:42.085Z,6.00
2022-11-29T08:06:08.716Z,6.00
2022-11-29T08:08:39.238Z,5.80
2022-11-29T08:11:14.765Z,5.90
2022-11-29T08:13:41.364Z,5.70
2022-11-29T08:16:08.656Z,6.00
2022-11-29T08:18:38.330Z,6.00
2022-11-29T08:21:08.264Z,6.00
2022-11-29T08:23:34.809Z,6.00
2022-11-29T08:26:05.468Z,6.00
2022-11-29T08:28:32.044Z,6.00
2022-11-29T08:31:07.108Z,6.20
2022-11-29T08:33:42.319Z,6.20
2022-11-29T08:36:11.423Z,6.20
2022-11-29T08:38:38.304Z,6.20
2022-11-29T08:41:06.508Z,6.20
2022-11-29T08:43:33.136Z,6.50
2022-11-29T08:46:00.011Z,6.30
2022-11-29T08:48:26.840Z,6.30
2022-11-29T08:50:56.730Z,6.40
2022-11-29T08:53:42.181Z,6.20
2022-11-29T08:56:49.357Z,6.20
2022-11-29T08:58:58.197Z,6.40
2022-11-29T09:01:33.068Z,6.50
2022-11-29T09:03:59.734Z,6.40
2022-11-29T09:06:28.112Z,6.30
2022-11-29T09:08:56.427Z,6.50
2022-11-29T09:11:24.500Z,6.50
2022-11-29T09:13:53.347Z,6.30
2022-11-29T09:16:22.606Z,6.50
2022-11-29T09:18:51.903Z,6.70
2022-11-29T09:21:19.354Z,6.60
2022-11-29T09:23:46.052Z,6.70
2022-11-29T09:26:18.881Z,6.80
2022-11-29T09:28:46.555Z,6.60
2022-11-29T09:31:15.002Z,6.50
2022-11-29T09:33:42.317Z,6.50
2022-11-29T09:36:11.929Z,6.50
2022-11-29T09:38:39.245Z,6.50
2022-11-29T09:41:20.970Z,6.70
2022-11-29T09:44:03.776Z,6.70
2022-11-29T09:46:33.266Z,6.90
2022-11-29T09:49:24.446Z,7.00
2022-11-29T09:52:18.849Z,6.90
2022-11-29T09:54:49.379Z,6.80
2022-11-29T09:57:17.475Z,6.80
2022-11-29T09:59:47.787Z,6.70
2022-11-29T10:02:21.650Z,6.80
2022-11-29T10:04:56.207Z,6.90
2022-11-29T10:07:28.071Z,6.90
2022-11-29T10:10:03.654Z,7.00
2022-11-29T10:12:49.334Z,6.90
2022-11-29T10:15:30.382Z,6.90
2022-11-29T10:18:03.990Z,7.00
2022-11-29T10:20:42.479Z,7.00
2022-11-29T10:23:24.449Z,7.00
2022-11-29T10:25:53.160Z,7.10
2022-11-29T10:28:29.022Z,7.10
2022-11-29T10:30:56.932Z,7.30
2022-11-29T10:33:33.417Z,7.30
2022-11-29T10:36:06.910Z,7.20
2022-11-29T10:38:33.441Z,7.20
2022-11-29T10:41:06.865Z,7.10
2022-11-29T10:43:33.503Z,7.20
2022-11-29T10:46:00.263Z,7.20
2022-11-29T10:48:31.587Z,7.10
2022-11-29T10:50:58.460Z,7.30
2022-11-29T10:53:33.199Z,7.40
2022-11-29T10:56:18.432Z,7.30
2022-11-29T10:58:58.415Z,7.20
2022-11-29T11:01:28.854Z,7.20
2022-11-29T11:03:57.526Z,7.30
2022-11-29T11:06:44.817Z,7.00
2022-11-29T11:09:34.089Z,6.90
2022-11-29T11:12:06.244Z,7.20
2022-11-29T11:14:37.435Z,7.30
2022-11-29T11:17:26.592Z,7.20
2022-11-29T11:20:23.787Z,7.10
2022-11-29T11:23:03.485Z,7.00
2022-11-29T11:25:50.055Z,6.90
2022-11-29T11:28:20.433Z,6.80
2022-11-29T11:31:08.287Z,6.90
2022-11-29T11:33:37.869Z,7.10
2022-11-29T11:36:06.393Z,7.10
2022-11-29T11:38:34.950Z,7.20
2022-11-29T11:41:12.428Z,7.20
2022-11-29T11:43:39.425Z,7.30
2022-11-29T11:46:08.064Z,7.00
2022-11-29T11:48:35.086Z,7.10
2022-11-29T11:51:02.015Z,7.20
2022-11-29T11:53:35.729Z,7.30
2022-11-29T11:56:09.418Z,7.50
2022-11-29T11:58:56.607Z,7.50
2022-11-29T12:01:39.064Z,7.10
2022-11-29T12:04:29.709Z,7.20
2022-11-29T12:07:02.969Z,7.40
2022-11-29T12:09:45.032Z,7.50
2022-11-29T12:12:24.138Z,7.50
2022-11-29T12:14:53.679Z,7.50
2022-11-29T12:17:42.243Z,7.40
2022-11-29T12:20:25.305Z,7.30
2022-11-29T12:23:13.073Z,7.30
2022-11-29T12:26:02.647Z,7.20
2022-11-29T12:28:32.713Z,7.30
2022-11-29T12:31:36.393Z,7.20
2022-11-29T12:34:07.126Z,7.30
2022-11-29T12:36:42.880Z,7.10
2022-11-29T12:39:19.866Z,7.00
2022-11-29T12:41:51.006Z,6.90
2022-11-29T12:44:24.345Z,7.10
2022-11-29T12:50:05.132Z,7.30
2022-11-29T12:52:47.789Z,7.10
2022-11-29T12:55:25.236Z,7.10
2022-11-29T12:58:00.928Z,7.00
2022-11-29T13:00:34.729Z,7.20
2022-11-29T13:03:18.089Z,7.20
2022-11-29T13:06:10.924Z,7.30
2022-11-29T13:09:16.683Z,7.40
2022-11-29T13:12:15.057Z,7.30
2022-11-29T13:14:57.371Z,7.20
2022-11-29T13:17:59.429Z,7.20
2022-11-29T13:20:30.932Z,7.30
2022-11-29T13:23:45.950Z,7.20
2022-11-29T13:26:22.959Z,7.40
2022-11-29T13:28:50.354Z,7.30
2022-11-29T13:31:22.446Z,7.20
2022-11-29T13:33:52.128Z,7.20
2022-11-29T13:36:21.424Z,7.20
2022-11-29T13:39:14.370Z,7.20
2022-11-29T13:41:48.855Z,7.30
2022-11-29T13:44:31.622Z,7.50
2022-11-29T13:47:04.400Z,7.40
2022-11-29T13:49:54.809Z,7.30
2022-11-29T13:52:46.772Z,7.30
2022-11-29T13:55:14.356Z,7.10
2022-11-29T13:58:15.436Z,7.20
2022-11-29T14:00:43.858Z,7.20
2022-11-29T14:03:27.825Z,7.10
2022-11-29T14:06:22.747Z,7.20
2022-11-29T14:09:17.719Z,7.20
2022-11-29T14:11:41.815Z,7.30
2022-11-29T14:14:10.484Z,7.20
2022-11-29T14:16:48.323Z,7.10
2022-11-29T14:19:33.975Z,7.20
2022-11-29T14:22:06.916Z,7.20
2022-11-29T14:24:36.245Z,7.10
2022-11-29T14:27:06.025Z,7.10
2022-11-29T14:29:47.765Z,7.00
2022-11-29T14:32:46.338Z,6.90
2022-11-29T14:35:21.445Z,6.90
2022-11-29T14:38:09.697Z,6.90
2022-11-29T14:40:42.372Z,7.00
2022-11-29T14:43:38.185Z,7.10
2022-11-29T14:46:15.302Z,7.10
2022-11-29T14:48:45.492Z,7.20
2022-11-29T14:51:16.066Z,7.10
2022-11-29T14:53:43.905Z,7.10
2022-11-29T14:56:29.100Z,7.00
2022-11-29T14:59:33.424Z,7.10
2022-11-29T15:02:01.816Z,7.10
2022-11-29T15:04:35.388Z,7.10
2022-11-29T15:07:03.020Z,7.10
2022-11-29T15:09:32.477Z,6.90
2022-11-29T15:12:03.533Z,6.90
2022-11-29T15:14:30.271Z,7.00
2022-11-29T15:17:32.930Z,7.10
2022-11-29T15:20:36.185Z,7.10
2022-11-29T15:23:14.988Z,7.10
2022-11-29T15:26:14.883Z,7.10
2022-11-29T15:28:41.460Z,7.10
2022-11-29T15:31:10.039Z,7.20
2022-11-29T15:33:39.568Z,7.20
2022-11-29T15:36:17.822Z,7.20
2022-11-29T15:38:52.809Z,7.20
2022-11-29T15:41:26.707Z,7.30
2022-11-29T15:43:56.970Z,7.20
2022-11-29T15:46:28.734Z,7.20
2022-11-29T15:49:21.432Z,7.10
2022-11-29T15:51:58.696Z,7.10
2022-11-29T15:54:44.010Z,7.20
2022-11-29T15:57:39.244Z,7.10
2022-11-29T16:00:07.890Z,7.10
2022-11-29T16:02:37.139Z,7.20
2022-11-29T16:05:21.383Z,7.20
2022-11-29T16:08:25.581Z,7.20
2022-11-29T16:10:55.664Z,7.00
2022-11-29T16:13:32.143Z,7.10
2022-11-29T16:16:21.982Z,7.30
2022-11-29T16:18:51.272Z,7.30
2022-11-29T16:21:29.367Z,7.20
2022-11-29T16:24:13.519Z,7.20
2022-11-29T16:26:43.957Z,7.00
2022-11-29T16:29:30.415Z,7.10
2022-11-29T16:32:09.314Z,7.10
2022-11-29T16:34:37.570Z,7.00
2022-11-29T16:37:11.228Z,7.10
2022-11-29T16:39:38.435Z,7.20
2022-11-29T16:42:20.546Z,7.10
2022-11-29T16:44:50.379Z,7.20
2022-11-29T16:47:24.876Z,7.10
2022-11-29T16:50:09.979Z,7.10
2022-11-29T16:52:36.946Z,6.90
2022-11-29T16:55:04.496Z,7.00
2022-11-29T16:57:31.923Z,7.10
2022-11-29T17:00:01.702Z,7.00
2022-11-29T17:02:33.170Z,7.00
2022-11-29T17:05:01.189Z,7.00
2022-11-29T17:07:32.734Z,7.40
2022-11-29T17:09:59.799Z,7.20
2022-11-29T17:12:26.343Z,7.10
2022-11-29T17:14:52.937Z,7.30
2022-11-29T17:17:19.723Z,7.40
2022-11-29T17:19:48.995Z,7.30
2022-11-29T17:22:15.591Z,7.20
2022-11-29T17:24:47.751Z,7.20
2022-11-29T17:27:15.068Z,7.30
2022-11-29T17:29:42.230Z,7.20
2022-11-29T17:32:12.037Z,7.40
2022-11-29T17:34:38.892Z,7.30
2022-11-29T17:37:05.684Z,7.20
2022-11-29T17:39:32.916Z,7.20
2022-11-29T17:41:59.617Z,7.20
2022-11-29T17:44:26.582Z,7.20
2022-11-29T17:46:59.158Z,7.30
2022-11-29T17:49:27.137Z,7.20
2022-11-29T17:51:54.163Z,7.10
2022-11-29T17:54:53.021Z,7.10
2022-11-29T17:57:12.322Z,7.20
2022-11-29T17:59:45.758Z,7.20
2022-11-29T18:02:13.051Z,7.10
2022-11-29T18:04:42.905Z,7.30
2022-11-29T18:07:09.719Z,7.00
2022-11-29T18:09:36.542Z,7.00
2022-11-29T18:12:04.398Z,7.10
2022-11-29T18:14:31.891Z,7.20
2022-11-29T18:16:58.636Z,7.20
2022-11-29T18:19:33.818Z,7.30
2022-11-29T18:22:01.020Z,7.20
2022-11-29T18:24:33.952Z,7.10
2022-11-29T18:27:01.204Z,7.10
2022-11-29T18:29:31.542Z,7.00
2022-11-29T18:32:02.483Z,7.10
2022-11-29T18:34:29.298Z,7.10
2022-11-29T18:36:56.240Z,7.10
2022-11-29T18:39:25.386Z,7.10
2022-11-29T18:41:52.069Z,7.00
2022-11-29T18:44:20.219Z,7.00
2022-11-29T18:46:47.275Z,7.00
2022-11-29T18:49:16.348Z,7.10
2022-11-29T18:51:44.782Z,7.20
2022-11-29T18:54:13.045Z,6.90
2022-11-29T18:56:43.717Z,7.00
2022-11-29T18:59:16.620Z,7.10
2022-11-29T19:01:45.059Z,7.30
2022-11-29T19:04:14.603Z,7.10
2022-11-29T19:06:41.331Z,7.10
2022-11-29T19:09:12.549Z,7.00
2022-11-29T19:11:39.718Z,7.10
2022-11-29T19:14:14.067Z,7.00
2022-11-29T19:16:43.476Z,6.90
2022-11-29T19:19:10.488Z,6.90
2022-11-29T19:21:39.120Z,6.80
2022-11-29T19:24:13.201Z,6.80
2022-11-29T19:26:39.885Z,6.70
2022-11-29T19:29:06.614Z,6.70
2022-11-29T19:31:33.181Z,6.80
2022-11-29T19:33:59.756Z,6.90
2022-11-29T19:36:28.633Z,7.00
2022-11-29T19:38:55.511Z,6.90
2022-11-29T19:41:26.207Z,7.00
2022-11-29T19:43:53.634Z,7.00
2022-11-29T19:46:29.032Z,7.00
2022-11-29T19:48:56.897Z,6.90
2022-11-29T19:51:24.364Z,7.00
2022-11-29T19:53:55.401Z,7.00
2022-11-29T19:56:22.604Z,7.10
2022-11-29T19:58:49.724Z,6.80
2022-11-29T20:01:18.553Z,6.70
2022-11-29T20:03:45.532Z,6.90
2022-11-29T20:06:13.581Z,7.00
2022-11-29T20:08:40.990Z,7.00
2022-11-29T20:11:15.880Z,7.00
2022-11-29T20:13:45.550Z,6.70
2022-11-29T20:16:13.022Z,7.00
2022-11-29T20:18:45.710Z,7.00
2022-11-29T20:21:18.288Z,6.80
2022-11-29T20:23:44.899Z,7.00
2022-11-29T20:26:16.398Z,7.20
2022-11-29T20:28:43.437Z,7.00
2022-11-29T20:31:15.936Z,7.10
2022-11-29T20:33:43.514Z,7.30
2022-11-29T20:36:43.977Z,7.20
2022-11-29T20:39:44.002Z,7.20
2022-11-29T20:42:29.549Z,7.00
2022-11-29T20:45:15.538Z,6.90
2022-11-29T20:48:28.720Z,6.90
2022-11-29T20:51:02.121Z,6.90
2022-11-29T20:53:32.779Z,6.90
2022-11-29T20:55:59.308Z,6.80
2022-11-29T20:58:26.472Z,7.10
2022-11-29T21:00:54.519Z,7.00
2022-11-29T21:03:21.718Z,6.90
2022-11-29T21:05:48.528Z,6.90
2022-11-29T21:08:15.976Z,6.90
2022-11-29T21:10:44.542Z,7.00
2022-11-29T21:13:12.515Z,7.10
2022-11-29T21:15:39.822Z,6.90
2022-11-29T21:18:06.751Z,7.00
2022-11-29T21:20:33.719Z,6.80
2022-11-29T21:23:03.127Z,6.70
2022-11-29T21:25:54.789Z,6.80
2022-11-29T21:28:25.734Z,6.80
2022-11-29T21:30:52.744Z,6.50
2022-11-29T21:33:19.518Z,6.50
2022-11-29T21:35:46.659Z,6.60
2022-11-29T21:38:15.051Z,6.60
2022-11-29T21:40:41.780Z,6.60
2022-11-29T21:43:08.454Z,6.60
2022-11-29T21:45:34.980Z,6.60
2022-11-29T21:48:01.649Z,6.60
2022-11-29T21:50:28.350Z,6.70
2022-11-29T21:52:55.995Z,6.70
2022-11-29T21:55:22.535Z,6.60
2022-11-29T21:57:49.192Z,6.80
2022-11-29T22:00:16.172Z,6.80
2022-11-29T22:02:42.821Z,6.80
2022-11-29T22:05:09.685Z,6.90
2022-11-29T22:07:36.381Z,6.80
2022-11-29T22:10:09.925Z,6.90
2022-11-29T22:12:45.737Z,6.60
2022-11-29T22:15:24.172Z,6.70
2022-11-29T22:17:53.194Z,6.70
2022-11-29T22:20:20.373Z,6.90
2022-11-29T22:22:48.582Z,7.00
2022-11-29T22:25:15.914Z,6.80
2022-11-29T22:27:42.571Z,6.80
2022-11-29T22:30:10.418Z,6.80
2022-11-29T22:32:37.086Z,6.70
2022-11-29T22:35:03.919Z,6.90
2022-11-29T22:37:30.457Z,6.90
2022-11-29T22:39:57.562Z,7.00
2022-11-29T22:42:24.225Z,6.90
2022-11-29T22:44:50.837Z,6.80
2022-11-29T22:47:17.373Z,6.80
2022-11-29T22:49:44.534Z,6.70
2022-11-29T22:52:11.151Z,6.70
2022-11-29T22:54:37.681Z,6.90
2022-11-29T22:57:04.252Z,6.90
2022-11-29T22:59:30.892Z,6.90
2022-11-29T23:01:57.586Z,6.70
2022-11-29T23:04:24.188Z,6.80
2022-11-29T23:06:53.736Z,6.80
2022-11-29T23:09:22.291Z,6.60
2022-11-29T23:11:53.363Z,6.60
2022-11-29T23:14:20.719Z,6.80
2022-11-29T23:16:47.559Z,6.80
2022-11-29T23:19:16.051Z,6.90
2022-11-29T23:21:45.380Z,6.80
2022-11-29T23:24:12.687Z,6.70
2022-11-29T23:26:44.582Z,6.80
2022-11-29T23:29:18.774Z,6.80
2022-11-29T23:31:46.612Z,6.80
2022-11-29T23:34:13.826Z,6.80
2022-11-29T23:36:40.359Z,6.80
2022-11-29T23:39:07.014Z,6.80
2022-11-29T23:41:34.604Z,6.70
2022-11-29T23:44:03.621Z,6.80
2022-11-29T23:46:30.231Z,6.90
2022-11-29T23:48:56.877Z,6.70
2022-11-29T23:51:23.491Z,6.80
2022-11-29T23:53:53.840Z,6.70
2022-11-29T23:56:21.314Z,6.90
2022-11-29T23:58:48.068Z,6.70
